Time;durP1;ratioP1;P1;durP2;ratioP2;P2;SDS_P1;SDS_P2;PMS_P1;PMS_P2;Temp;Humidity;BMP_temperature;BMP_pressure;BME280_temperature;BME280_humidity;BME280_pressure;Samples;Min_cycle;Max_cycle;Signal;HPM_P1;HPM_P2
2021/11/28 00:00:54;;;;;;;10.10;2.92;;;18.60;99.90;;;;;;5104945;28;20023;-65
2021/11/28 00:03:22;;;;;;;11.70;2.47;;;18.60;99.90;;;;;;5105197;28;20077;-64
2021/11/28 00:05:58;;;;;;;10.23;3.00;;;18.60;99.90;;;;;;5107019;28;20024;-64
2021/11/28 00:15:57;;;;;;;11.82;2.42;;;18.80;99.90;;;;;;5108353;28;20028;-66
2021/11/28 00:18:24;;;;;;;7.95;2.05;;;18.80;99.90;;;;;;5105528;28;20363;-66
2021/11/28 00:20:51;;;;;;;15.07;3.60;;;18.90;99.90;;;;;;5107843;27;20110;-66
2021/11/28 00:23:18;;;;;;;8.73;2.58;;;19.00;99.90;;;;;;5104578;28;20035;-70
2021/11/28 00:25:46;;;;;;;7.97;2.20;;;19.20;99.90;;;;;;5100853;28;20050;-65
2021/11/28 00:28:16;;;;;;;9.88;2.40;;;19.30;99.90;;;;;;5104425;28;20048;-70
2021/11/28 00:30:43;;;;;;;7.78;2.22;;;19.40;99.90;;;;;;5108321;28;20023;-66
2021/11/28 00:33:10;;;;;;;10.02;2.90;;;19.70;99.90;;;;;;5102422;28;20028;-72
2021/11/28 00:35:38;;;;;;;8.20;2.35;;;19.80;99.90;;;;;;5105948;28;20022;-71
2021/11/28 00:38:05;;;;;;;9.40;2.60;;;19.90;99.90;;;;;;5106349;28;20024;-72
2021/11/28 00:40:32;;;;;;;8.70;2.47;;;20.00;99.90;;;;;;5107947;28;20035;-72
2021/11/28 00:42:59;;;;;;;7.75;2.00;;;20.10;99.90;;;;;;5106703;28;20023;-73
2021/11/28 00:45:26;;;;;;;9.70;2.38;;;20.20;99.90;;;;;;5107419;28;20350;-71
2021/11/28 00:47:54;;;;;;;10.65;3.00;;;20.30;99.90;;;;;;5108576;28;20055;-72
2021/11/28 00:52:48;;;;;;;9.30;2.05;;;19.90;99.90;;;;;;5102681;28;20028;-66
2021/11/28 00:55:15;;;;;;;9.75;3.03;;;19.70;99.90;;;;;;5100058;28;20428;-72
2021/11/28 00:57:42;;;;;;;8.75;2.45;;;19.70;99.90;;;;;;5102791;28;20052;-71
2021/11/28 01:00:11;;;;;;;7.18;2.05;;;19.70;99.90;;;;;;5107793;28;20022;-71
2021/11/28 01:02:38;;;;;;;10.73;2.30;;;19.80;99.90;;;;;;5105880;28;20026;-67
2021/11/28 01:05:07;;;;;;;6.93;1.98;;;20.00;99.90;;;;;;5104118;28;20028;-71
2021/11/28 01:07:38;;;;;;;7.57;1.95;;;20.10;99.90;;;;;;5105379;28;20072;-72
2021/11/28 01:10:08;;;;;;;8.50;1.77;;;20.60;99.90;;;;;;5104940;28;20023;-67
2021/11/28 01:12:35;;;;;;;12.07;2.47;;;21.10;99.00;;;;;;5103981;28;20087;-69
2021/11/28 01:15:04;;;;;;;12.23;2.30;;;21.10;99.10;;;;;;5106775;28;20023;-66
2021/11/28 01:17:34;;;;;;;6.65;2.22;;;21.20;98.10;;;;;;5105064;28;20012;-72
2021/11/28 01:20:02;;;;;;;8.88;2.25;;;21.10;98.00;;;;;;5105744;28;20099;-68
2021/11/28 01:22:30;;;;;;;11.13;2.45;;;21.00;98.70;;;;;;5103146;28;20024;-73
2021/11/28 01:24:57;;;;;;;10.57;3.00;;;20.90;99.50;;;;;;5105340;28;20063;-69
2021/11/28 01:27:24;;;;;;;10.25;2.58;;;21.10;99.00;;;;;;5106088;28;20128;-71
2021/11/28 01:29:52;;;;;;;12.13;2.67;;;21.30;98.20;;;;;;5102232;28;20442;-73
2021/11/28 01:32:19;;;;;;;8.65;2.40;;;21.30;98.40;;;;;;5103844;28;20035;-74
2021/11/28 01:34:46;;;;;;;12.18;3.00;;;21.40;99.00;;;;;;5106260;28;20020;-73
2021/11/28 01:37:13;;;;;;;7.90;1.85;;;21.50;97.10;;;;;;5105676;28;20012;-70
2021/11/28 01:39:41;;;;;;;7.85;2.22;;;21.30;98.50;;;;;;5101841;28;20027;-67
2021/11/28 01:42:08;;;;;;;9.15;2.00;;;21.20;95.80;;;;;;5104626;28;20030;-67
2021/11/28 01:44:36;;;;;;;9.00;1.90;;;21.20;96.50;;;;;;5103543;28;20404;-72
2021/11/28 01:47:03;;;;;;;9.57;2.20;;;21.20;95.70;;;;;;5105795;28;20031;-65
2021/11/28 01:49:30;;;;;;;9.45;2.20;;;21.10;96.60;;;;;;5105331;28;20454;-71
2021/11/28 01:51:58;;;;;;;13.73;2.50;;;20.90;97.30;;;;;;5105016;28;20502;-72
2021/11/28 01:54:25;;;;;;;7.90;1.98;;;20.80;97.70;;;;;;5103630;28;20528;-72
2021/11/28 01:56:52;;;;;;;10.55;2.65;;;20.80;98.70;;;;;;5105523;28;20020;-72
2021/11/28 01:59:20;;;;;;;6.60;2.38;;;20.80;98.60;;;;;;5104848;28;20015;-70
2021/11/28 02:01:48;;;;;;;10.50;2.70;;;20.90;98.60;;;;;;5099918;28;20031;-71
2021/11/28 02:04:19;;;;;;;9.70;2.95;;;20.90;98.80;;;;;;4385821;28;10000723;-68
2021/11/28 02:06:48;;;;;;;10.00;2.45;;;21.00;98.50;;;;;;5097699;28;20028;-69
2021/11/28 02:09:15;;;;;;;9.45;2.65;;;20.90;98.00;;;;;;5099881;28;20461;-67
2021/11/28 02:11:45;;;;;;;7.72;2.13;;;20.90;99.10;;;;;;5091942;28;20020;-68
2021/11/28 02:14:12;;;;;;;6.45;2.17;;;20.80;98.80;;;;;;5091745;28;20115;-65
2021/11/28 02:16:40;;;;;;;9.88;2.30;;;20.60;99.10;;;;;;5093853;28;20123;-70
2021/11/28 02:19:07;;;;;;;14.90;2.90;;;20.50;99.00;;;;;;5087128;28;20016;-70
2021/11/28 02:21:34;;;;;;;9.75;2.33;;;20.50;99.40;;;;;;5088920;28;20800;-68
2021/11/28 02:24:01;;;;;;;11.35;2.95;;;20.40;99.90;;;;;;5095110;28;20043;-72
2021/11/28 02:26:30;;;;;;;13.20;2.72;;;20.30;99.90;;;;;;5101244;28;20747;-72
2021/11/28 02:28:58;;;;;;;12.48;3.50;;;20.10;99.90;;;;;;5096600;28;20038;-71
2021/11/28 02:31:25;;;;;;;12.20;3.03;;;19.70;99.90;;;;;;5095994;28;20051;-72
2021/11/28 02:33:53;;;;;;;11.40;2.50;;;19.60;99.90;;;;;;5075758;28;20489;-67
2021/11/28 02:36:20;;;;;;;12.75;3.42;;;19.70;99.90;;;;;;5078711;28;20117;-70
2021/11/28 02:38:48;;;;;;;10.05;2.65;;;19.60;99.90;;;;;;5093065;28;20046;-73
2021/11/28 02:41:15;;;;;;;12.00;3.22;;;19.60;99.90;;;;;;5099477;28;20023;-72
2021/11/28 02:43:43;;;;;;;9.25;3.45;;;19.50;99.90;;;;;;5078835;28;20118;-69
2021/11/28 02:46:11;;;;;;;10.85;3.05;;;19.30;99.90;;;;;;5092306;28;20032;-70
2021/11/28 02:48:39;;;;;;;6.20;2.70;;;19.30;99.90;;;;;;5093784;28;20806;-67
2021/11/28 02:51:07;;;;;;;12.88;3.90;;;19.30;99.90;;;;;;5098775;28;20529;-70
2021/11/28 02:53:35;;;;;;;14.80;3.88;;;19.30;99.90;;;;;;5089570;28;20105;-70
2021/11/28 02:56:07;;;;;;;12.23;3.97;;;19.40;99.90;;;;;;5100917;28;20027;-69
2021/11/28 02:58:36;;;;;;;17.70;4.77;;;19.70;99.90;;;;;;5101730;28;20116;-69
2021/11/28 03:01:09;;;;;;;11.23;4.00;;;20.00;99.90;;;;;;5104531;28;20310;-71
2021/11/28 03:03:36;;;;;;;15.27;4.18;;;20.20;99.90;;;;;;5101543;28;20834;-70
2021/11/28 03:06:05;;;;;;;10.50;3.75;;;20.10;99.90;;;;;;5091349;28;20074;-69
2021/11/28 03:08:32;;;;;;;11.77;3.50;;;20.10;99.90;;;;;;5103832;28;20160;-68
2021/11/28 03:10:59;;;;;;;10.43;3.88;;;20.10;99.90;;;;;;5092181;28;20111;-68
2021/11/28 03:13:27;;;;;;;10.93;4.30;;;20.30;99.90;;;;;;5096217;28;20094;-70
2021/11/28 03:15:56;;;;;;;11.02;4.18;;;20.50;99.90;;;;;;5093221;28;20032;-72
2021/11/28 03:18:26;;;;;;;15.90;4.03;;;20.50;99.90;;;;;;5086130;28;20031;-73
2021/11/28 03:20:55;;;;;;;11.20;3.50;;;20.50;99.90;;;;;;5088697;28;20111;-71
2021/11/28 03:23:26;;;;;;;12.75;4.45;;;20.80;99.90;;;;;;5096285;28;20530;-69
2021/11/28 03:26:04;;;;;;;13.45;4.00;;;21.00;99.00;;;;;;5093872;28;20096;-69
2021/11/28 03:28:31;;;;;;;10.13;3.75;;;21.10;98.10;;;;;;5096601;28;20509;-69
2021/11/28 03:30:59;;;;;;;10.13;3.50;;;21.30;98.30;;;;;;5099152;28;20023;-67
2021/11/28 03:33:26;;;;;;;8.18;2.80;;;21.40;98.00;;;;;;5098633;28;20050;-69
2021/11/28 03:35:53;;;;;;;10.73;3.25;;;21.40;97.50;;;;;;5101621;28;20154;-69
2021/11/28 03:38:21;;;;;;;10.40;3.03;;;21.50;96.80;;;;;;5092393;28;20024;-69
2021/11/28 03:40:48;;;;;;;11.15;3.60;;;21.80;96.90;;;;;;5093281;28;20651;-69
2021/11/28 03:43:15;;;;;;;10.50;3.35;;;21.80;94.80;;;;;;5090132;28;20031;-70
2021/11/28 03:45:43;;;;;;;13.75;3.20;;;21.90;96.20;;;;;;5101157;28;20094;-68
2021/11/28 03:48:10;;;;;;;10.68;2.80;;;21.90;95.70;;;;;;5099866;28;20151;-68
2021/11/28 03:50:37;;;;;;;7.03;2.72;;;21.90;94.80;;;;;;5094651;28;20444;-70
2021/11/28 03:53:04;;;;;;;9.05;2.80;;;21.70;95.50;;;;;;5092669;28;20107;-69
2021/11/28 03:55:32;;;;;;;13.07;3.00;;;21.70;95.80;;;;;;5096131;28;20023;-70
2021/11/28 03:57:59;;;;;;;9.45;2.45;;;21.70;95.40;;;;;;5101550;28;20153;-69
2021/11/28 04:00:27;;;;;;;13.73;3.20;;;21.70;97.00;;;;;;5075159;28;20024;-69
2021/11/28 04:02:54;;;;;;;6.65;2.53;;;21.90;95.00;;;;;;5091162;28;20354;-70
2021/11/28 04:05:24;;;;;;;9.68;3.05;;;22.10;96.30;;;;;;5090893;28;20077;-68
2021/11/28 04:07:51;;;;;;;11.73;2.88;;;22.30;95.20;;;;;;5088049;28;20054;-66
2021/11/28 04:10:18;;;;;;;10.82;3.13;;;22.30;93.80;;;;;;5101419;28;20032;-69
2021/11/28 04:12:46;;;;;;;9.95;2.55;;;22.10;94.30;;;;;;5074823;28;20036;-69
2021/11/28 04:15:13;;;;;;;9.48;2.53;;;21.90;95.50;;;;;;5095879;28;20550;-66
2021/11/28 04:17:40;;;;;;;7.95;2.95;;;21.90;95.70;;;;;;5099534;28;20105;-69
2021/11/28 04:20:09;;;;;;;12.43;3.05;;;21.70;95.70;;;;;;5098958;28;20016;-69
2021/11/28 04:22:36;;;;;;;6.45;2.15;;;21.50;94.80;;;;;;5075260;28;20032;-67
2021/11/28 04:25:07;;;;;;;10.50;2.30;;;21.20;96.70;;;;;;5099456;28;20098;-70
2021/11/28 04:27:34;;;;;;;10.88;3.33;;;21.00;96.50;;;;;;5098323;28;20069;-66
2021/11/28 04:30:03;;;;;;;8.18;3.13;;;20.70;97.00;;;;;;5103365;28;20020;-67
2021/11/28 04:32:30;;;;;;;11.25;2.88;;;20.60;98.40;;;;;;5103042;28;20377;-69
2021/11/28 04:34:58;;;;;;;16.25;3.63;;;20.50;97.90;;;;;;5100394;28;20557;-68
2021/11/28 04:37:25;;;;;;;6.53;3.45;;;20.50;98.40;;;;;;5086429;28;20105;-67
2021/11/28 04:39:53;;;;;;;10.02;2.90;;;20.40;97.80;;;;;;5085387;28;20439;-69
2021/11/28 04:42:20;;;;;;;10.95;3.20;;;20.20;98.00;;;;;;5100899;28;20077;-70
2021/11/28 04:44:47;;;;;;;11.38;3.80;;;20.00;98.70;;;;;;5084092;28;20639;-70
2021/11/28 04:47:18;;;;;;;13.82;3.15;;;20.00;99.10;;;;;;5101005;28;20500;-70
2021/11/28 04:49:46;;;;;;;11.60;3.53;;;19.80;99.90;;;;;;5082844;28;20198;-71
2021/11/28 04:52:13;;;;;;;15.85;3.85;;;19.60;99.70;;;;;;5104820;28;20031;-71
2021/11/28 04:54:40;;;;;;;11.38;2.88;;;19.40;99.90;;;;;;5099089;28;20470;-70
2021/11/28 04:57:08;;;;;;;10.00;3.72;;;19.20;99.90;;;;;;5101644;28;20079;-70
2021/11/28 04:59:35;;;;;;;12.93;3.20;;;19.20;99.90;;;;;;5083996;28;20030;-70
2021/11/28 05:02:03;;;;;;;11.75;2.95;;;19.20;99.90;;;;;;5102464;28;20027;-69
2021/11/28 05:04:30;;;;;;;9.43;3.47;;;19.10;99.90;;;;;;5103411;28;20051;-69
2021/11/28 05:06:57;;;;;;;12.50;3.42;;;19.20;99.90;;;;;;5101963;28;20035;-68
2021/11/28 05:09:24;;;;;;;10.05;3.17;;;19.10;99.90;;;;;;5101009;28;20032;-69
2021/11/28 05:11:52;;;;;;;10.02;3.58;;;19.10;99.90;;;;;;5103733;28;20707;-68
2021/11/28 05:14:19;;;;;;;13.55;2.95;;;19.00;99.90;;;;;;5103941;28;20076;-68
2021/11/28 05:16:46;;;;;;;7.88;2.58;;;18.90;99.90;;;;;;5081416;28;20615;-69
2021/11/28 05:19:13;;;;;;;15.75;3.55;;;18.80;99.90;;;;;;5084429;28;20015;-69
2021/11/28 05:21:41;;;;;;;9.57;2.63;;;18.80;99.90;;;;;;5102779;28;20078;-70
2021/11/28 05:24:09;;;;;;;13.02;3.28;;;18.70;99.90;;;;;;5101532;28;20130;-70
2021/11/28 05:26:36;;;;;;;12.75;3.25;;;18.60;99.90;;;;;;5104754;28;20541;-69
2021/11/28 05:29:05;;;;;;;13.48;4.28;;;18.60;99.90;;;;;;5085912;28;20028;-69
2021/11/28 05:31:35;;;;;;;14.60;3.65;;;18.70;99.90;;;;;;5100510;28;20052;-70
2021/11/28 05:34:02;;;;;;;13.55;3.38;;;18.70;99.90;;;;;;5083512;28;20082;-71
2021/11/28 05:36:29;;;;;;;9.68;3.00;;;18.60;99.90;;;;;;5085514;28;20034;-70
2021/11/28 05:38:57;;;;;;;10.93;2.70;;;18.50;99.90;;;;;;5102161;28;20065;-71
2021/11/28 05:41:24;;;;;;;13.57;3.50;;;18.50;99.90;;;;;;5102286;28;20020;-70
2021/11/28 05:43:51;;;;;;;10.60;3.45;;;18.50;99.90;;;;;;5101154;28;20026;-69
2021/11/28 05:46:19;;;;;;;16.42;4.78;;;18.50;99.90;;;;;;5102483;28;20035;-71
2021/11/28 05:48:46;;;;;;;8.95;3.28;;;18.50;99.90;;;;;;5099486;28;20114;-72
2021/11/28 05:51:13;;;;;;;16.05;3.38;;;18.60;99.90;;;;;;5101807;28;20406;-72
2021/11/28 05:53:40;;;;;;;12.02;2.72;;;18.50;99.90;;;;;;5102637;28;20015;-73
2021/11/28 05:56:07;;;;;;;17.95;3.45;;;18.30;99.90;;;;;;5081608;28;20035;-69
2021/11/28 05:58:34;;;;;;;10.32;3.10;;;18.20;99.90;;;;;;5103736;28;20031;-73
2021/11/28 06:01:02;;;;;;;15.73;3.15;;;18.10;99.90;;;;;;5097560;28;20039;-70
2021/11/28 06:03:29;;;;;;;12.60;2.72;;;18.20;99.90;;;;;;5099167;28;20513;-69
2021/11/28 06:05:56;;;;;;;18.42;3.05;;;18.10;99.90;;;;;;5100104;28;20032;-68
2021/11/28 06:08:23;;;;;;;10.27;2.50;;;18.10;99.90;;;;;;5104341;28;20084;-69
2021/11/28 06:10:52;;;;;;;12.30;2.70;;;18.10;99.90;;;;;;5098835;28;20035;-69
2021/11/28 06:13:19;;;;;;;11.73;2.47;;;18.10;99.90;;;;;;5082775;28;20070;-68
2021/11/28 06:15:46;;;;;;;9.55;3.30;;;18.10;99.90;;;;;;5102047;28;20016;-69
2021/11/28 06:18:14;;;;;;;10.20;2.83;;;18.00;99.90;;;;;;5081452;28;20760;-68
2021/11/28 06:20:41;;;;;;;11.32;3.47;;;18.00;99.90;;;;;;5100151;28;20027;-71
2021/11/28 06:23:08;;;;;;;10.38;2.70;;;18.00;99.90;;;;;;5099436;28;20037;-67
2021/11/28 06:25:35;;;;;;;10.90;3.00;;;18.10;99.90;;;;;;5099133;28;20106;-70
2021/11/28 06:28:04;;;;;;;12.30;3.65;;;18.00;99.90;;;;;;5101158;28;20135;-66
2021/11/28 06:30:31;;;;;;;9.18;3.15;;;17.90;99.90;;;;;;5099608;28;20023;-66
2021/11/28 06:33:01;;;;;;;9.60;4.15;;;17.80;99.90;;;;;;5100497;28;22006;-71
2021/11/28 06:35:28;;;;;;;7.55;2.80;;;17.80;99.90;;;;;;5100724;28;20028;-70
2021/11/28 06:37:55;;;;;;;16.33;3.47;;;17.80;99.90;;;;;;5101459;28;20008;-71
2021/11/28 06:40:22;;;;;;;15.80;3.05;;;17.80;99.90;;;;;;5101020;28;20020;-73
2021/11/28 06:42:49;;;;;;;16.83;6.22;;;17.80;99.90;;;;;;5102261;28;20677;-71
2021/11/28 06:45:18;;;;;;;14.32;5.75;;;17.70;99.90;;;;;;5100489;28;20046;-69
2021/11/28 06:47:46;;;;;;;23.15;10.05;;;17.70;99.90;;;;;;5100267;28;20023;-70
2021/11/28 06:50:14;;;;;;;15.70;7.88;;;17.70;99.90;;;;;;5097664;28;20027;-68
2021/11/28 06:52:42;;;;;;;17.48;8.57;;;17.70;99.90;;;;;;5103320;28;20077;-70
2021/11/28 06:55:09;;;;;;;14.65;3.15;;;17.70;99.90;;;;;;5100834;28;20028;-69
2021/11/28 06:57:37;;;;;;;14.02;4.22;;;17.60;99.90;;;;;;5098977;28;20069;-69
2021/11/28 07:00:06;;;;;;;14.32;5.13;;;17.70;99.90;;;;;;5100411;28;20020;-69
2021/11/28 07:02:34;;;;;;;10.57;3.83;;;17.60;99.90;;;;;;5098709;28;20027;-68
2021/11/28 07:05:01;;;;;;;11.15;2.92;;;17.60;99.90;;;;;;5099368;28;20028;-67
2021/11/28 07:07:28;;;;;;;12.15;3.92;;;17.60;99.90;;;;;;5097328;28;20638;-67
2021/11/28 07:09:56;;;;;;;8.35;2.58;;;17.60;99.90;;;;;;5097969;28;20088;-67
2021/11/28 07:12:24;;;;;;;9.75;3.15;;;17.60;99.90;;;;;;5078657;28;20054;-65
2021/11/28 07:14:51;;;;;;;15.55;3.85;;;17.60;99.90;;;;;;5101712;28;20048;-66
2021/11/28 07:17:19;;;;;;;7.05;3.22;;;17.60;99.90;;;;;;5094405;28;20077;-69
2021/11/28 07:19:46;;;;;;;20.38;3.72;;;17.50;99.90;;;;;;5098317;28;20036;-69
2021/11/28 07:22:13;;;;;;;11.65;3.25;;;17.60;99.90;;;;;;5099853;28;20024;-66
2021/11/28 07:24:41;;;;;;;7.40;2.58;;;17.80;99.90;;;;;;5075920;28;20032;-73
2021/11/28 07:27:09;;;;;;;10.30;3.08;;;17.80;99.90;;;;;;5098559;28;20043;-69
2021/11/28 07:29:37;;;;;;;13.63;2.88;;;17.80;99.90;;;;;;5098959;28;20024;-69
2021/11/28 07:32:05;;;;;;;11.35;2.92;;;17.80;99.90;;;;;;5098195;28;20473;-73
2021/11/28 07:34:32;;;;;;;10.93;3.13;;;17.70;99.90;;;;;;5098473;28;20119;-73
2021/11/28 07:36:59;;;;;;;9.98;2.90;;;17.60;99.90;;;;;;5098903;28;20024;-70
2021/11/28 07:39:27;;;;;;;11.82;2.60;;;17.60;99.90;;;;;;5097037;28;20051;-72
2021/11/28 07:41:54;;;;;;;10.20;2.90;;;17.50;99.90;;;;;;5099021;28;20032;-71
2021/11/28 07:44:21;;;;;;;9.30;3.15;;;17.50;99.90;;;;;;5099582;28;20457;-67
2021/11/28 07:46:49;;;;;;;9.25;2.72;;;17.50;99.90;;;;;;5087114;28;20790;-72
2021/11/28 07:49:16;;;;;;;10.02;3.25;;;17.50;99.90;;;;;;5099620;28;20031;-68
2021/11/28 07:51:43;;;;;;;11.07;2.75;;;17.40;99.90;;;;;;5093845;28;20027;-70
2021/11/28 07:54:10;;;;;;;12.50;2.85;;;17.40;99.90;;;;;;5096513;28;20462;-68
2021/11/28 07:56:38;;;;;;;10.40;2.70;;;17.40;99.90;;;;;;5099267;28;20036;-71
2021/11/28 07:59:06;;;;;;;12.45;2.65;;;17.30;99.90;;;;;;5099345;28;20621;-69
2021/11/28 08:01:33;;;;;;;8.07;2.45;;;17.30;99.90;;;;;;5097225;28;20063;-71
2021/11/28 08:04:00;;;;;;;14.00;2.80;;;17.30;99.90;;;;;;5100842;28;20034;-67
2021/11/28 08:06:28;;;;;;;9.02;2.70;;;17.40;99.90;;;;;;5099643;28;20089;-67
2021/11/28 08:08:55;;;;;;;12.70;3.05;;;17.30;99.90;;;;;;5099945;28;20030;-66
2021/11/28 08:11:22;;;;;;;15.05;3.35;;;17.30;99.90;;;;;;5081810;28;20035;-69
2021/11/28 08:13:50;;;;;;;9.77;2.42;;;17.20;99.90;;;;;;5102281;28;20069;-69
2021/11/28 08:16:17;;;;;;;12.27;3.20;;;17.10;99.90;;;;;;5098956;28;20016;-67
2021/11/28 08:18:45;;;;;;;10.13;2.55;;;17.10;99.90;;;;;;5098864;28;20425;-68
2021/11/28 08:21:13;;;;;;;15.80;3.20;;;17.10;99.90;;;;;;5102306;28;20746;-68
2021/11/28 08:23:42;;;;;;;11.52;2.72;;;17.20;99.90;;;;;;5097320;28;20028;-69
2021/11/28 08:26:10;;;;;;;15.30;3.28;;;17.10;99.90;;;;;;5102027;28;20625;-70
2021/11/28 08:28:37;;;;;;;10.20;2.47;;;17.10;99.90;;;;;;5096525;28;20108;-69
2021/11/28 08:31:05;;;;;;;13.68;3.55;;;17.10;99.90;;;;;;5101367;28;20034;-69
2021/11/28 08:33:32;;;;;;;8.60;2.65;;;17.10;99.90;;;;;;5100829;28;20066;-67
2021/11/28 08:36:00;;;;;;;13.02;3.35;;;17.10;99.90;;;;;;5101391;28;21356;-69
2021/11/28 08:38:27;;;;;;;14.18;3.15;;;17.10;99.90;;;;;;5062180;28;20047;-67
2021/11/28 08:40:55;;;;;;;14.75;2.63;;;17.10;99.90;;;;;;5099659;28;20034;-67
2021/11/28 08:43:23;;;;;;;13.10;2.92;;;17.10;99.90;;;;;;5101024;28;20682;-69
2021/11/28 08:45:50;;;;;;;10.75;3.10;;;17.10;99.90;;;;;;5098155;28;20024;-71
2021/11/28 08:48:18;;;;;;;10.05;2.65;;;17.00;99.90;;;;;;5100750;28;20023;-68
2021/11/28 08:50:46;;;;;;;15.38;3.10;;;16.90;99.90;;;;;;5101674;28;20434;-66
2021/11/28 08:53:13;;;;;;;15.00;5.05;;;16.90;99.90;;;;;;5100921;28;20072;-72
2021/11/28 08:55:42;;;;;;;17.70;3.85;;;17.00;99.90;;;;;;5099481;28;20024;-66
2021/11/28 08:58:09;;;;;;;9.10;2.85;;;16.90;99.90;;;;;;5099111;28;20069;-65
2021/11/28 09:00:37;;;;;;;11.50;3.10;;;16.90;99.90;;;;;;5101021;28;20023;-67
2021/11/28 09:03:04;;;;;;;13.48;2.85;;;16.90;99.90;;;;;;5101949;28;20081;-70
2021/11/28 09:05:32;;;;;;;10.35;2.50;;;16.90;99.90;;;;;;5082303;28;20062;-65
2021/11/28 09:08:00;;;;;;;12.40;3.30;;;16.90;99.90;;;;;;5101621;28;20028;-67
2021/11/28 09:10:29;;;;;;;13.93;2.70;;;16.90;99.90;;;;;;5099582;28;20016;-66
2021/11/28 09:12:58;;;;;;;11.63;2.35;;;17.00;99.90;;;;;;5100449;28;20559;-66
2021/11/28 09:15:26;;;;;;;10.70;3.00;;;17.00;99.90;;;;;;5098616;28;20026;-67
2021/11/28 09:18:05;;;;;;;10.00;2.65;;;17.00;99.90;;;;;;5098815;28;20012;-66
2021/11/28 09:20:34;;;;;;;8.52;2.50;;;16.90;99.90;;;;;;5099520;28;20044;-68
2021/11/28 09:25:30;;;;;;;12.90;2.75;;;16.90;99.90;;;;;;5098500;28;20082;-65
2021/11/28 09:28:04;;;;;;;11.07;2.58;;;16.90;99.90;;;;;;5098260;28;20036;-67
2021/11/28 09:30:31;;;;;;;12.68;3.20;;;16.90;99.90;;;;;;5099095;28;20016;-69
2021/11/28 09:33:01;;;;;;;12.65;3.25;;;16.80;99.90;;;;;;5102564;28;20098;-66
2021/11/28 09:35:28;;;;;;;10.77;2.88;;;16.80;99.90;;;;;;5098799;28;20024;-68
2021/11/28 09:37:57;;;;;;;10.15;3.20;;;16.90;99.90;;;;;;5097905;28;20118;-64
2021/11/28 09:40:25;;;;;;;13.10;3.50;;;16.80;99.90;;;;;;5096802;28;20016;-66
2021/11/28 09:42:56;;;;;;;13.60;3.03;;;16.80;99.90;;;;;;5100216;28;20024;-68
2021/11/28 09:45:26;;;;;;;10.95;2.80;;;16.70;99.90;;;;;;5082785;28;20030;-66
2021/11/28 09:47:57;;;;;;;11.57;2.67;;;16.70;99.90;;;;;;5096199;28;20032;-69
2021/11/28 09:50:26;;;;;;;11.02;3.03;;;16.70;99.90;;;;;;5098846;28;20621;-63
2021/11/28 09:52:56;;;;;;;9.85;2.78;;;16.70;99.90;;;;;;5096249;28;20097;-68
2021/11/28 09:55:26;;;;;;;14.85;2.33;;;16.70;99.90;;;;;;5098583;28;20020;-65
2021/11/28 09:57:56;;;;;;;10.57;2.65;;;16.70;99.90;;;;;;5099238;28;20119;-67
2021/11/28 10:00:25;;;;;;;14.82;3.22;;;16.70;99.90;;;;;;5097850;28;20051;-68
2021/11/28 10:02:52;;;;;;;11.40;2.63;;;16.70;99.90;;;;;;5098514;28;20039;-67
2021/11/28 10:05:20;;;;;;;15.07;3.17;;;16.60;99.90;;;;;;5099959;28;20031;-67
2021/11/28 10:07:49;;;;;;;14.93;3.17;;;16.50;99.90;;;;;;5098809;28;20156;-72
2021/11/28 10:10:19;;;;;;;9.68;2.65;;;16.50;99.90;;;;;;5097851;28;20036;-66
2021/11/28 10:12:51;;;;;;;8.10;2.63;;;16.40;99.90;;;;;;5098005;28;20023;-68
2021/11/28 10:15:25;;;;;;;14.15;2.70;;;16.30;99.90;;;;;;5079929;28;20028;-71
2021/11/28 10:17:52;;;;;;;14.80;3.50;;;16.30;99.90;;;;;;5094209;28;20566;-70
2021/11/28 10:20:22;;;;;;;12.60;2.78;;;16.20;99.90;;;;;;5095727;28;20077;-70
2021/11/28 10:22:51;;;;;;;16.55;3.40;;;16.20;99.90;;;;;;5096503;28;20054;-70
2021/11/28 10:25:28;;;;;;;12.77;2.65;;;16.10;99.90;;;;;;5092867;28;20445;-71
2021/11/28 10:28:10;;;;;;;12.75;3.03;;;16.10;99.90;;;;;;5100291;22;20056;-67
2021/11/28 10:30:41;;;;;;;8.80;2.58;;;16.10;99.90;;;;;;5091807;28;20032;-70
2021/11/28 10:33:25;;;;;;;6.82;2.22;;;16.10;99.90;;;;;;5092483;28;20030;-65
2021/11/28 10:36:08;;;;;;;7.07;2.38;;;16.00;99.90;;;;;;5074184;28;20685;-66
2021/11/28 10:38:43;;;;;;;13.75;3.10;;;15.90;99.90;;;;;;5093553;28;20687;-69
2021/11/28 10:41:25;;;;;;;11.77;3.28;;;16.00;99.90;;;;;;5098169;28;20552;-69
2021/11/28 10:43:53;;;;;;;14.02;2.65;;;16.00;99.90;;;;;;5089183;28;20019;-67
2021/11/28 10:46:33;;;;;;;9.93;2.78;;;16.00;99.90;;;;;;5088985;28;20390;-67
2021/11/28 10:49:10;;;;;;;11.57;3.70;;;15.90;99.90;;;;;;4745631;28;10000153;-66
2021/11/28 10:51:44;;;;;;;12.15;3.15;;;15.90;99.90;;;;;;5093689;28;20127;-70
2021/11/28 10:54:26;;;;;;;13.23;3.28;;;15.90;99.90;;;;;;5084541;28;20059;-68
2021/11/28 10:57:14;;;;;;;12.40;3.03;;;16.00;99.90;;;;;;5086665;28;20032;-70
2021/11/28 10:59:54;;;;;;;11.10;3.05;;;15.90;99.90;;;;;;5087695;28;20024;-71
2021/11/28 11:02:33;;;;;;;15.10;3.22;;;15.90;99.90;;;;;;5086794;28;20549;-68
2021/11/28 11:05:03;;;;;;;13.35;3.55;;;15.80;99.90;;;;;;5092590;28;20023;-66
2021/11/28 11:07:45;;;;;;;13.35;3.83;;;15.70;99.90;;;;;;5086502;28;20032;-69
2021/11/28 11:10:29;;;;;;;11.63;3.03;;;15.70;99.90;;;;;;5086863;28;20028;-67
2021/11/28 11:12:58;;;;;;;9.73;2.83;;;15.60;99.90;;;;;;5092074;28;20031;-67
2021/11/28 11:15:45;;;;;;;16.08;7.07;;;15.50;99.90;;;;;;5083267;28;20383;-68
2021/11/28 11:18:15;;;;;;;19.85;9.18;;;15.50;99.90;;;;;;5086836;28;20497;-68
2021/11/28 11:20:50;;;;;;;12.85;5.80;;;15.40;99.90;;;;;;5086791;28;20028;-66
2021/11/28 11:23:35;;;;;;;14.77;3.47;;;15.30;99.90;;;;;;5095177;28;20032;-68
2021/11/28 11:26:33;;;;;;;14.93;4.00;;;15.20;99.90;;;;;;5088150;28;20032;-67
2021/11/28 11:29:14;;;;;;;8.85;2.80;;;15.20;99.90;;;;;;5074004;28;20435;-67
2021/11/28 11:31:43;;;;;;;14.48;3.20;;;15.20;99.90;;;;;;5100548;28;20036;-67
2021/11/28 11:34:30;;;;;;;12.73;3.90;;;15.20;99.90;;;;;;5091693;28;20553;-66
2021/11/28 11:37:02;;;;;;;13.75;3.78;;;15.10;99.90;;;;;;5102832;28;20032;-68
2021/11/28 11:39:32;;;;;;;18.97;4.10;;;15.10;99.90;;;;;;5107394;28;20026;-71
2021/11/28 11:42:01;;;;;;;16.50;4.28;;;15.10;99.90;;;;;;5100849;28;20268;-68
2021/11/28 11:44:29;;;;;;;16.92;4.22;;;15.00;99.90;;;;;;5100648;28;20031;-71
2021/11/28 11:46:58;;;;;;;15.45;3.72;;;15.00;99.90;;;;;;5104020;28;20118;-71
2021/11/28 11:49:27;;;;;;;15.07;4.00;;;15.10;99.90;;;;;;5104701;28;20081;-72
2021/11/28 11:51:55;;;;;;;11.68;3.45;;;15.10;99.90;;;;;;5105485;28;20039;-68
2021/11/28 11:54:23;;;;;;;15.35;3.58;;;15.10;99.90;;;;;;5104865;28;20044;-68
2021/11/28 11:57:03;;;;;;;15.90;3.63;;;15.10;99.90;;;;;;5100160;28;20115;-71
2021/11/28 11:59:38;;;;;;;12.30;3.35;;;15.10;99.90;;;;;;5096951;28;20024;-68
2021/11/28 12:02:07;;;;;;;16.77;3.53;;;15.20;99.90;;;;;;5111078;28;20061;-68
2021/11/28 12:04:47;;;;;;;14.65;3.42;;;15.20;99.90;;;;;;5089518;28;20078;-67
2021/11/28 12:07:14;;;;;;;19.52;3.53;;;15.30;99.90;;;;;;5110021;28;20458;-72
2021/11/28 12:09:42;;;;;;;13.07;3.10;;;15.40;99.90;;;;;;5095511;28;20097;-68
2021/11/28 12:12:12;;;;;;;11.55;3.30;;;15.40;99.90;;;;;;5105812;28;20031;-67
2021/11/28 12:15:17;;;;;;;12.07;3.45;;;15.40;99.90;;;;;;5096731;28;20867;-67
2021/11/28 12:17:44;;;;;;;13.68;3.20;;;15.30;99.90;;;;;;5089140;28;20405;-69
2021/11/28 12:20:15;;;;;;;15.15;3.60;;;15.30;99.90;;;;;;5104571;28;20023;-72
2021/11/28 12:22:47;;;;;;;13.63;3.08;;;15.30;99.90;;;;;;5099718;28;20023;-68
2021/11/28 12:25:39;;;;;;;16.23;3.72;;;15.20;99.90;;;;;;5105926;28;20032;-69
2021/11/28 12:28:24;;;;;;;13.15;3.40;;;15.20;99.90;;;;;;5099651;28;20067;-71
2021/11/28 12:31:03;;;;;;;16.85;3.10;;;15.20;99.90;;;;;;5099405;28;20031;-71
2021/11/28 12:33:52;;;;;;;22.02;3.83;;;15.30;99.90;;;;;;5107933;28;20338;-68
2021/11/28 12:36:55;;;;;;;22.65;3.83;;;15.30;99.90;;;;;;5098610;28;20028;-68
2021/11/28 12:39:23;;;;;;;20.42;3.25;;;15.30;99.90;;;;;;5076894;28;20035;-68
2021/11/28 12:42:08;;;;;;;15.52;2.47;;;15.30;99.90;;;;;;5094228;28;20552;-68
2021/11/28 12:44:57;;;;;;;13.93;3.78;;;15.30;99.90;;;;;;5107782;28;20027;-68
2021/11/28 12:47:30;;;;;;;10.45;3.30;;;15.20;99.90;;;;;;5093866;28;20106;-70
2021/11/28 12:50:17;;;;;;;11.15;3.03;;;15.20;99.90;;;;;;5075224;28;20159;-67
2021/11/28 12:52:50;;;;;;;23.35;3.97;;;15.10;99.90;;;;;;5090479;28;20035;-67
2021/11/28 12:55:23;;;;;;;13.15;2.97;;;15.10;99.90;;;;;;5096520;28;20036;-68
2021/11/28 12:57:59;;;;;;;14.75;3.40;;;15.00;99.90;;;;;;5090999;28;20032;-67
2021/11/28 13:00:49;;;;;;;21.45;3.58;;;15.00;99.90;;;;;;5097096;28;20470;-68
2021/11/28 13:03:16;;;;;;;14.65;3.40;;;14.90;99.90;;;;;;5099066;28;20027;-71